createdAt,value
2019-02-02T00:02:45.714Z,8.23
2019-02-02T00:06:48.203Z,10.30
2019-02-02T00:10:50.764Z,8.00
2019-02-02T00:14:53.259Z,8.27
2019-02-02T00:18:55.857Z,7.20
2019-02-02T00:22:58.706Z,7.47
2019-02-02T00:27:01.195Z,6.20
2019-02-02T00:31:03.749Z,6.83
2019-02-02T00:35:06.459Z,6.53
2019-02-02T00:39:11.511Z,6.67
2019-02-02T00:43:14.225Z,9.47
2019-02-02T00:47:16.812Z,9.47
2019-02-02T00:51:19.487Z,10.70
2019-02-02T00:55:22.430Z,12.43
2019-02-02T00:59:25.046Z,10.27
2019-02-02T01:03:27.667Z,10.00
2019-02-02T01:07:30.262Z,12.47
2019-02-02T01:11:33.077Z,8.97
2019-02-02T01:15:35.844Z,9.63
2019-02-02T01:19:38.326Z,10.10
2019-02-02T01:23:40.979Z,12.83
2019-02-02T01:27:43.612Z,9.33
2019-02-02T01:31:46.108Z,10.97
2019-02-02T01:35:48.540Z,11.33
2019-02-02T01:39:51.026Z,9.57
2019-02-02T01:43:53.576Z,12.17
2019-02-02T01:47:57.293Z,10.83
2019-02-02T01:51:59.828Z,12.43
2019-02-02T01:56:02.318Z,13.67
2019-02-02T02:00:05.212Z,13.10
2019-02-02T02:04:08.236Z,11.10
2019-02-02T02:08:10.776Z,12.13
2019-02-02T02:12:13.511Z,10.27
2019-02-02T02:16:16.336Z,13.37
2019-02-02T02:20:19.466Z,11.57
2019-02-02T02:24:22.095Z,15.07
2019-02-02T02:28:28.152Z,15.57
2019-02-02T02:32:28.752Z,12.47
2019-02-02T02:36:31.381Z,10.90
2019-02-02T02:40:33.915Z,16.70
2019-02-02T02:44:36.398Z,13.13
2019-02-02T02:48:39.004Z,15.03
2019-02-02T02:52:41.500Z,14.80
2019-02-02T02:56:43.940Z,13.53
2019-02-02T03:00:46.463Z,14.00
2019-02-02T03:04:48.898Z,18.20
2019-02-02T03:08:51.397Z,17.70
2019-02-02T03:12:54.154Z,14.33
2019-02-02T03:16:56.711Z,16.73
2019-02-02T03:20:59.139Z,15.23
2019-02-02T03:25:01.700Z,15.17
2019-02-02T03:29:04.127Z,17.70
2019-02-02T03:33:06.759Z,11.77
2019-02-02T03:37:09.329Z,14.50
2019-02-02T03:41:11.831Z,18.40
2019-02-02T03:45:16.694Z,11.93
2019-02-02T03:49:19.282Z,15.47
2019-02-02T03:53:21.720Z,24.03
2019-02-02T03:57:25.608Z,15.93
2019-02-02T04:01:30.212Z,15.70
2019-02-02T04:05:32.554Z,13.90
2019-02-02T04:09:34.981Z,20.67
2019-02-02T04:13:37.464Z,19.47
2019-02-02T04:17:40.155Z,18.17
2019-02-02T04:21:42.621Z,20.07
2019-02-02T04:25:46.808Z,21.30
2019-02-02T04:29:49.332Z,16.77
2019-02-02T04:33:51.743Z,16.03
2019-02-02T04:37:54.566Z,21.87
2019-02-02T04:41:56.968Z,14.73
2019-02-02T04:45:59.648Z,18.80
2019-02-02T04:50:02.316Z,18.50
2019-02-02T04:54:04.938Z,19.47
2019-02-02T04:58:07.588Z,16.23
2019-02-02T05:02:10.552Z,16.63
2019-02-02T05:06:12.962Z,17.50
2019-02-02T05:10:18.069Z,17.33
2019-02-02T05:14:20.532Z,19.77
2019-02-02T05:18:24.302Z,15.87
2019-02-02T05:22:26.698Z,22.90
2019-02-02T05:26:29.618Z,23.70
2019-02-02T05:30:32.764Z,14.43
2019-02-02T05:34:35.340Z,25.37
2019-02-02T05:38:37.894Z,16.20
2019-02-02T05:42:40.367Z,16.50
2019-02-02T05:46:42.800Z,15.83
2019-02-02T05:50:45.367Z,16.43
2019-02-02T05:54:47.751Z,20.80
2019-02-02T05:58:50.252Z,17.77
2019-02-02T06:02:52.810Z,14.57
2019-02-02T06:06:55.267Z,24.40
2019-02-02T06:10:57.875Z,19.97
2019-02-02T06:15:00.315Z,18.83
2019-02-02T06:19:02.732Z,19.37
2019-02-02T06:23:05.329Z,26.23
2019-02-02T06:27:08.027Z,19.50
2019-02-02T06:31:10.572Z,19.60
2019-02-02T06:35:14.524Z,17.40
2019-02-02T06:39:17.123Z,19.77
2019-02-02T06:43:19.665Z,16.53
2019-02-02T06:47:23.351Z,17.23
2019-02-02T06:51:25.799Z,17.40
2019-02-02T06:55:28.625Z,15.77
2019-02-02T06:59:31.063Z,15.53
2019-02-02T07:03:33.671Z,16.30
2019-02-02T07:07:36.225Z,14.33
2019-02-02T07:11:38.827Z,17.03
2019-02-02T07:15:41.269Z,17.40
2019-02-02T07:19:43.776Z,17.37
2019-02-02T07:23:46.198Z,15.27
2019-02-02T07:27:50.263Z,13.90
2019-02-02T07:31:52.692Z,17.73
2019-02-02T07:35:55.156Z,17.90
2019-02-02T07:39:57.784Z,17.20
2019-02-02T07:44:00.269Z,19.00
2019-02-02T07:48:02.801Z,17.77
2019-02-02T07:52:05.494Z,16.10
2019-02-02T07:56:08.190Z,12.37
2019-02-02T08:00:17.688Z,12.17
2019-02-02T08:04:20.190Z,16.60
2019-02-02T08:08:22.692Z,15.70
2019-02-02T08:12:25.178Z,12.57
2019-02-02T08:16:27.698Z,17.93
2019-02-02T08:20:30.252Z,13.60
2019-02-02T08:24:32.808Z,15.57
2019-02-02T08:28:35.392Z,11.73
2019-02-02T08:32:37.864Z,17.47
2019-02-02T08:36:40.358Z,14.53
2019-02-02T08:40:43.128Z,13.13
2019-02-02T08:44:45.596Z,9.60
2019-02-02T08:48:48.064Z,14.87
2019-02-02T08:52:50.485Z,11.73
2019-02-02T08:56:52.989Z,10.70
2019-02-02T09:01:03.842Z,10.67
2019-02-02T09:04:59.844Z,13.80
2019-02-02T09:09:02.445Z,14.20
2019-02-02T09:13:06.988Z,9.77
2019-02-02T09:17:09.621Z,13.90
2019-02-02T09:21:13.502Z,12.47
2019-02-02T09:25:17.079Z,13.97
2019-02-02T09:29:19.995Z,11.97
2019-02-02T09:33:22.438Z,15.40
2019-02-02T09:37:25.055Z,17.17
2019-02-02T09:41:27.632Z,13.53
2019-02-02T09:45:30.091Z,14.97
2019-02-02T09:49:32.810Z,12.10
2019-02-02T09:53:35.287Z,14.67
2019-02-02T09:57:37.820Z,13.17
2019-02-02T10:01:40.584Z,18.13
2019-02-02T10:05:43.017Z,14.80
2019-02-02T10:09:45.611Z,13.47
2019-02-02T10:13:48.046Z,13.87
2019-02-02T10:17:50.748Z,16.67
2019-02-02T10:21:53.306Z,14.37
2019-02-02T10:25:55.823Z,13.57
2019-02-02T10:29:58.297Z,12.30
2019-02-02T10:34:00.833Z,15.97
2019-02-02T10:38:03.375Z,12.33
2019-02-02T10:42:05.889Z,12.73
2019-02-02T10:46:10.737Z,11.00
2019-02-02T10:50:14.347Z,9.83
2019-02-02T10:54:16.758Z,8.63
2019-02-02T10:58:19.378Z,12.43
2019-02-02T11:02:23.929Z,12.00
2019-02-02T11:06:26.399Z,9.20
2019-02-02T11:10:31.331Z,10.10
2019-02-02T11:14:33.941Z,9.10
2019-02-02T11:18:36.458Z,7.77
2019-02-02T11:22:39.289Z,12.23
2019-02-02T11:26:41.925Z,13.57
2019-02-02T11:30:44.597Z,8.63
2019-02-02T11:34:47.178Z,7.27
2019-02-02T11:38:49.736Z,12.17
2019-02-02T11:42:52.395Z,10.43
2019-02-02T11:46:54.932Z,12.23
2019-02-02T11:50:57.433Z,10.47
2019-02-02T11:54:59.955Z,11.47
2019-02-02T11:59:04.034Z,14.43
2019-02-02T12:03:07.147Z,9.40
2019-02-02T12:07:09.828Z,10.07
2019-02-02T12:11:12.364Z,9.30
2019-02-02T12:15:18.088Z,10.33
2019-02-02T12:19:20.556Z,10.53
2019-02-02T12:23:23.006Z,8.43
2019-02-02T12:27:25.481Z,9.77
2019-02-02T12:31:28.011Z,9.20
2019-02-02T12:35:30.850Z,8.53
2019-02-02T12:39:33.360Z,9.87
2019-02-02T12:43:36.035Z,7.20
2019-02-02T12:47:38.451Z,5.70
2019-02-02T12:51:41.069Z,11.73
2019-02-02T12:55:43.690Z,7.77
2019-02-02T12:59:46.191Z,6.93
2019-02-02T13:04:01.167Z,11.27
2019-02-02T13:07:55.775Z,10.57
2019-02-02T13:11:58.317Z,9.83
2019-02-02T13:16:00.779Z,9.80
2019-02-02T13:20:03.419Z,9.70
2019-02-02T13:24:06.623Z,11.53
2019-02-02T13:28:09.174Z,11.03
2019-02-02T13:32:12.859Z,10.47
2019-02-02T13:36:15.420Z,13.77
2019-02-02T13:40:19.961Z,10.93
2019-02-02T13:44:22.487Z,9.77
2019-02-02T13:48:25.190Z,8.57
2019-02-02T13:52:27.617Z,9.53
2019-02-02T13:56:30.218Z,7.83
2019-02-02T14:00:33.405Z,15.90
2019-02-02T14:04:36.191Z,6.87
2019-02-02T14:08:38.844Z,8.23
2019-02-02T14:12:41.433Z,10.60
2019-02-02T14:16:43.836Z,13.77
2019-02-02T14:20:48.342Z,10.03
2019-02-02T14:24:50.771Z,9.07
2019-02-02T14:28:53.269Z,12.00
2019-02-02T14:32:55.835Z,10.83
2019-02-02T14:36:58.423Z,12.23
2019-02-02T14:41:00.988Z,11.80
2019-02-02T14:45:05.636Z,14.67
2019-02-02T14:49:09.566Z,9.83
2019-02-02T14:53:12.131Z,12.10
2019-02-02T14:57:14.559Z,12.57
2019-02-02T15:01:17.057Z,17.97
2019-02-02T15:05:22.081Z,8.53
2019-02-02T15:09:26.192Z,12.27
2019-02-02T15:13:29.114Z,14.20
2019-02-02T15:17:31.862Z,9.47
2019-02-02T15:21:34.256Z,14.97
2019-02-02T15:25:36.920Z,10.43
2019-02-02T15:29:39.395Z,12.57
2019-02-02T15:33:41.991Z,14.67
2019-02-02T15:37:44.519Z,13.23
2019-02-02T15:41:52.938Z,8.70
2019-02-02T15:45:51.189Z,12.03
2019-02-02T15:49:56.170Z,21.93
2019-02-02T15:53:58.651Z,13.13
2019-02-02T15:58:01.292Z,13.67
2019-02-02T16:02:04.190Z,11.83
2019-02-02T16:06:06.925Z,10.20
2019-02-02T16:10:15.229Z,13.17
2019-02-02T16:14:16.762Z,12.10
2019-02-02T16:18:19.312Z,8.67
2019-02-02T16:22:21.887Z,17.53
2019-02-02T16:26:24.412Z,12.83
2019-02-02T16:30:28.622Z,14.83
2019-02-02T16:34:31.072Z,15.70
2019-02-02T16:38:33.637Z,13.20
2019-02-02T16:42:38.058Z,19.57
2019-02-02T16:46:42.455Z,11.73
2019-02-02T16:50:46.456Z,14.83
2019-02-02T16:54:50.495Z,12.17
2019-02-02T16:58:54.702Z,12.63
2019-02-02T17:02:58.434Z,14.00
2019-02-02T17:07:01.412Z,17.57
2019-02-02T17:11:05.862Z,16.73
2019-02-02T17:15:10.950Z,18.57
2019-02-02T17:19:15.967Z,12.37
2019-02-02T17:23:21.156Z,16.40
2019-02-02T17:27:25.416Z,14.10
2019-02-02T17:31:29.287Z,19.03
2019-02-02T17:35:33.773Z,16.13
2019-02-02T17:39:38.307Z,15.20
2019-02-02T17:43:42.255Z,12.37
2019-02-02T17:47:45.753Z,16.97
2019-02-02T17:51:49.348Z,13.73
2019-02-02T17:55:54.266Z,16.50
2019-02-02T17:59:58.713Z,17.70
2019-02-02T18:04:04.731Z,17.00
2019-02-02T18:08:08.818Z,16.13
2019-02-02T18:12:11.927Z,25.13
2019-02-02T18:16:15.267Z,16.60
2019-02-02T18:20:17.916Z,17.03
2019-02-02T18:24:20.411Z,25.80
2019-02-02T18:28:22.910Z,20.10
2019-02-02T18:32:25.376Z,21.27
2019-02-02T18:36:27.916Z,21.27
2019-02-02T18:40:30.376Z,22.00
2019-02-02T18:44:32.801Z,27.97
2019-02-02T18:48:35.790Z,19.97
2019-02-02T18:52:38.486Z,21.47
2019-02-02T18:56:40.977Z,23.03
2019-02-02T19:00:44.900Z,22.63
2019-02-02T19:04:47.403Z,15.03
2019-02-02T19:08:50.263Z,14.00
2019-02-02T19:12:52.822Z,16.77
2019-02-02T19:17:01.205Z,15.87
2019-02-02T19:20:59.852Z,16.17
2019-02-02T19:25:02.292Z,15.83
2019-02-02T19:29:05.278Z,18.50
2019-02-02T19:33:08.142Z,15.57
2019-02-02T19:37:11.685Z,18.10
2019-02-02T19:41:14.215Z,16.33
2019-02-02T19:45:19.382Z,20.80
2019-02-02T19:49:22.034Z,16.53
2019-02-02T19:53:24.581Z,16.17
2019-02-02T19:57:27.902Z,11.10
2019-02-02T20:01:30.777Z,10.73
2019-02-02T20:05:33.538Z,11.13
2019-02-02T20:09:36.866Z,14.57
2019-02-02T20:13:39.838Z,7.63
2019-02-02T20:17:45.634Z,17.03
2019-02-02T20:21:47.268Z,19.10
2019-02-02T20:25:49.882Z,16.50
2019-02-02T20:29:52.303Z,7.40
2019-02-02T20:33:54.788Z,17.90
2019-02-02T20:37:57.316Z,19.97
2019-02-02T20:42:00.086Z,13.77
2019-02-02T20:46:02.505Z,21.63
2019-02-02T20:50:05.667Z,14.60
2019-02-02T20:54:08.198Z,23.53
2019-02-02T20:58:10.829Z,16.63
2019-02-02T21:02:13.368Z,13.77
2019-02-02T21:06:16.027Z,14.87
2019-02-02T21:10:21.992Z,17.93
2019-02-02T21:14:24.587Z,15.37
2019-02-02T21:18:27.043Z,17.60
2019-02-02T21:22:29.744Z,18.87
2019-02-02T21:26:32.523Z,19.17
2019-02-02T21:30:36.518Z,14.83
2019-02-02T21:34:39.206Z,14.43
2019-02-02T21:38:41.838Z,18.63
2019-02-02T21:42:44.531Z,18.67
2019-02-02T21:46:47.057Z,13.73
2019-02-02T21:50:49.699Z,13.53
2019-02-02T21:54:52.167Z,19.37
2019-02-02T21:58:54.625Z,12.50
2019-02-02T22:02:57.126Z,18.87
2019-02-02T22:06:59.542Z,17.73
2019-02-02T22:11:02.447Z,17.03
2019-02-02T22:15:06.368Z,18.57
2019-02-02T22:19:09.104Z,16.80
2019-02-02T22:23:11.731Z,14.03
2019-02-02T22:27:14.212Z,11.30
2019-02-02T22:31:16.635Z,13.90
2019-02-02T22:35:19.191Z,13.27
2019-02-02T22:39:21.645Z,11.33
2019-02-02T22:43:24.635Z,10.77
2019-02-02T22:47:28.017Z,12.33
2019-02-02T22:51:32.331Z,13.33
2019-02-02T22:55:35.122Z,15.73
2019-02-02T22:59:37.612Z,13.47
2019-02-02T23:03:53.206Z,15.20
2019-02-02T23:08:16.642Z,12.47
2019-02-02T23:13:01.227Z,9.07
2019-02-02T23:17:04.117Z,11.37
2019-02-02T23:21:07.956Z,11.27
2019-02-02T23:25:10.649Z,9.87
2019-02-02T23:29:13.062Z,7.47
2019-02-02T23:33:15.542Z,12.07
2019-02-02T23:37:18.013Z,12.37
2019-02-02T23:41:21.983Z,7.10
2019-02-02T23:45:24.665Z,9.67
2019-02-02T23:49:27.225Z,8.83
2019-02-02T23:53:30.347Z,13.77
2019-02-02T23:57:32.835Z,10.27
